This is the latest recevied weather packets stored in our database for station/object ac2ev. If no packets are shown the sender has not sent any weather packets the latest 10 day(s).
| Time | Temp. | Humidity | Pressure | Rain* | Wind** | Luminosity | Snow |
|---|---|---|---|---|---|---|---|
| 1778010367 | 16.67° C | 67% | 1004.4 hPa | 0 mm | - | - | - |
| 1778010067 | 16.67° C | 67% | 1004.4 hPa | 0 mm | - | - | - |
| 1778009765 | 16.67° C | 67% | 1004.3 hPa | 0 mm | - | - | - |
| 1778009465 | 16.67° C | 68% | 1004.3 hPa | 0 mm | - | - | - |
| 1778009163 | 16.67° C | 66% | 1004.3 hPa | 0 mm | - | - | - |
| 1778008866 | 17.22° C | 66% | 1004.3 hPa | 0 mm | - | - | - |
| 1778008563 | 17.78° C | 65% | 1004.2 hPa | 0 mm | - | - | - |
| 1778008262 | 17.78° C | 64% | 1004.1 hPa | 0 mm | - | - | - |
| 1778007966 | 18.89° C | 61% | 1004 hPa | 0 mm | - | - | - |
| 1778007662 | 20° C | 58% | 1004.2 hPa | 0 mm | - | - | - |
| 1778007363 | 20.56° C | 59% | 1004.1 hPa | 0 mm | - | - | - |
| 1778007063 | 20° C | 60% | 1004.1 hPa | 0 mm | - | - | - |
| 1778006762 | 20° C | 59% | 1003.9 hPa | 0 mm | - | - | - |
| 1778006462 | 20° C | 58% | 1003.9 hPa | 0 mm | - | - | - |
| 1778006170 | 20.56° C | 57% | 1003.9 hPa | 0 mm | - | - | - |
| 1778005862 | 20.56° C | 56% | 1003.8 hPa | 0 mm | - | - | - |
| 1778005563 | 20.56° C | 55% | 1003.8 hPa | 0 mm | - | - | - |
| 1778005263 | 21.11° C | 54% | 1003.7 hPa | 0 mm | - | - | - |
| 1778004963 | 21.11° C | 53% | 1003.4 hPa | 0 mm | - | - | - |
| 1778004663 | 21.11° C | 55% | 1003.4 hPa | 0 mm | - | - | - |
| 1778004363 | 20.56° C | 55% | 1003.4 hPa | 0 mm | - | - | - |
| 1778004063 | 20.56° C | 55% | 1003.5 hPa | 0 mm | - | - | - |
| 1778003763 | 20.56° C | 56% | 1003.3 hPa | 0 mm | - | - | - |
| 1778003463 | 20.56° C | 56% | 1003.4 hPa | 0 mm | - | - | - |
| 1778003162 | 20.56° C | 56% | 1003.3 hPa | 0 mm | - | - | - |
* Rain latest hour (hover to see other rain measurements)
** Current wind speed in m/s (hover to see current wind gust speed)